Time;durP1;ratioP1;P1;durP2;ratioP2;P2;SDS_P1;SDS_P2;PMS_P1;PMS_P2;Temp;Humidity;BMP_temperature;BMP_pressure;BME280_temperature;BME280_humidity;BME280_pressure;Samples;Min_cycle;Max_cycle;Signal;HPM_P1;HPM_P2
2023/02/23 00:01:21;;;;;;;93.93;45.03;;;8.20;99.90;;;;;;4919980;29;20655;-78
2023/02/23 00:03:50;;;;;;;87.15;41.15;;;8.20;99.90;;;;;;4921326;29;20478;-78
2023/02/23 00:06:18;;;;;;;79.65;41.65;;;8.20;99.90;;;;;;4917970;29;20044;-78
2023/02/23 00:08:46;;;;;;;85.63;41.55;;;8.30;99.90;;;;;;4911926;29;20394;-78
2023/02/23 00:11:13;;;;;;;83.93;40.60;;;8.30;99.90;;;;;;4916321;29;20047;-78
2023/02/23 00:13:40;;;;;;;81.00;39.35;;;8.30;99.90;;;;;;4911064;29;20032;-78
2023/02/23 00:16:12;;;;;;;89.38;42.22;;;8.20;99.90;;;;;;4916674;29;20032;-77
2023/02/23 00:18:44;;;;;;;82.25;40.53;;;8.20;99.90;;;;;;4920958;29;20505;-77
2023/02/23 00:21:20;;;;;;;79.13;39.45;;;8.30;99.90;;;;;;4913788;29;20378;-77
2023/02/23 00:24:09;;;;;;;84.97;43.72;;;8.30;99.90;;;;;;4919345;29;20039;-77
2023/02/23 00:26:38;;;;;;;82.95;40.97;;;8.40;99.90;;;;;;4926060;29;20036;-78
2023/02/23 00:29:11;;;;;;;91.47;45.47;;;8.40;99.90;;;;;;4922038;29;20106;-77
2023/02/23 00:31:37;;;;;;;75.80;39.90;;;8.30;99.90;;;;;;4920668;29;20046;-77
2023/02/23 00:34:04;;;;;;;84.18;42.40;;;8.30;99.90;;;;;;4921656;29;20034;-77
2023/02/23 00:36:34;;;;;;;88.18;43.00;;;8.30;99.90;;;;;;4917694;29;20466;-76
2023/02/23 00:39:19;;;;;;;95.20;47.78;;;8.30;99.90;;;;;;4924075;29;20478;-76
2023/02/23 00:41:45;;;;;;;93.68;47.72;;;8.30;99.90;;;;;;4920262;29;20038;-75
2023/02/23 00:44:14;;;;;;;101.18;51.33;;;8.30;99.90;;;;;;4914140;29;20123;-75
2023/02/23 00:46:42;;;;;;;99.95;49.25;;;8.30;99.90;;;;;;4921509;29;20122;-77
2023/02/23 00:49:10;;;;;;;100.47;49.08;;;8.10;99.90;;;;;;4923750;29;20092;-75
2023/02/23 00:51:36;;;;;;;90.97;47.53;;;8.20;99.90;;;;;;4921962;29;20059;-75
2023/02/23 00:54:03;;;;;;;93.63;44.78;;;8.40;99.90;;;;;;4922976;29;20486;-76
2023/02/23 00:56:29;;;;;;;98.60;45.58;;;8.40;99.90;;;;;;4912834;29;20048;-76
2023/02/23 00:58:56;;;;;;;85.10;42.88;;;8.40;99.90;;;;;;4918647;29;20024;-76
2023/02/23 01:01:22;;;;;;;86.03;43.58;;;8.40;99.90;;;;;;4913543;29;20033;-76
2023/02/23 01:03:48;;;;;;;89.78;39.28;;;8.50;99.90;;;;;;4928650;29;20035;-75
2023/02/23 01:06:16;;;;;;;79.40;39.03;;;8.50;99.90;;;;;;4914078;29;20039;-76
2023/02/23 01:08:47;;;;;;;78.93;40.38;;;8.50;99.90;;;;;;4915286;29;20035;-75
2023/02/23 01:11:16;;;;;;;83.47;43.67;;;8.50;99.90;;;;;;4917651;29;20051;-76
2023/02/23 01:13:43;;;;;;;72.07;38.15;;;8.50;99.90;;;;;;4919520;29;20043;-75
2023/02/23 01:16:12;;;;;;;89.95;41.35;;;8.50;99.90;;;;;;4918621;29;20059;-75
2023/02/23 01:18:38;;;;;;;89.95;43.55;;;8.60;99.90;;;;;;4926716;29;20498;-75
2023/02/23 01:21:12;;;;;;;91.00;47.30;;;8.60;99.90;;;;;;4928970;29;20032;-75
2023/02/23 01:23:38;;;;;;;85.65;42.63;;;8.50;99.90;;;;;;4924784;29;20096;-77
2023/02/23 01:26:04;;;;;;;82.07;41.17;;;8.60;99.90;;;;;;4916891;29;20040;-75
2023/02/23 01:28:29;;;;;;;82.40;40.75;;;8.50;99.90;;;;;;4916507;29;20490;-75
2023/02/23 01:30:55;;;;;;;82.90;42.50;;;8.60;99.90;;;;;;4927178;29;20514;-76
2023/02/23 01:33:21;;;;;;;94.20;45.50;;;8.60;99.90;;;;;;4923399;29;20044;-75
2023/02/23 01:35:57;;;;;;;93.80;45.90;;;8.50;99.90;;;;;;4929368;29;20042;-76
2023/02/23 01:38:23;;;;;;;95.90;49.78;;;8.50;99.90;;;;;;4923054;29;20091;-75
2023/02/23 01:40:49;;;;;;;99.70;51.10;;;8.40;99.90;;;;;;4916858;29;20036;-76
2023/02/23 01:43:19;;;;;;;106.00;53.40;;;8.40;99.90;;;;;;4925208;29;20042;-75
2023/02/23 01:45:45;;;;;;;97.47;51.33;;;8.50;99.90;;;;;;4921083;29;20036;-76
2023/02/23 01:48:16;;;;;;;100.55;50.72;;;8.50;99.90;;;;;;4925557;29;20052;-76
2023/02/23 01:50:53;;;;;;;104.90;49.92;;;8.40;99.90;;;;;;4914852;29;20095;-75
2023/02/23 01:53:22;;;;;;;109.55;51.78;;;8.20;99.90;;;;;;4921878;29;20133;-76
2023/02/23 01:55:55;;;;;;;105.65;49.88;;;8.10;99.90;;;;;;4921840;29;20043;-75
2023/02/23 01:58:23;;;;;;;103.55;54.05;;;8.10;99.90;;;;;;4921640;29;20039;-75
2023/02/23 02:00:53;;;;;;;99.03;52.60;;;8.20;99.90;;;;;;4922720;29;20055;-76
2023/02/23 02:03:30;;;;;;;99.32;51.95;;;8.20;99.90;;;;;;4927190;29;20040;-76
2023/02/23 02:05:57;;;;;;;98.20;51.95;;;8.20;99.90;;;;;;4933840;29;20123;-75
2023/02/23 02:08:25;;;;;;;95.30;49.17;;;8.10;99.90;;;;;;4923804;29;20032;-75
2023/02/23 02:10:55;;;;;;;106.40;51.80;;;8.10;99.90;;;;;;4924116;29;20051;-75
2023/02/23 02:13:28;;;;;;;108.88;50.35;;;8.10;99.90;;;;;;4921806;29;20035;-76
2023/02/23 02:16:06;;;;;;;96.78;49.47;;;8.20;99.90;;;;;;4918337;29;20093;-76
2023/02/23 02:18:45;;;;;;;94.70;49.08;;;8.20;99.90;;;;;;4923731;29;20064;-77
2023/02/23 02:21:38;;;;;;;102.78;49.75;;;8.20;99.90;;;;;;4923351;29;20536;-76
2023/02/23 02:24:25;;;;;;;103.93;48.45;;;8.10;99.90;;;;;;4924758;29;20501;-75
2023/02/23 02:27:13;;;;;;;98.22;50.78;;;8.00;99.90;;;;;;4921903;29;20067;-75
2023/02/23 02:30:17;;;;;;;100.38;51.13;;;7.90;99.90;;;;;;4929078;29;20131;-76
2023/02/23 02:33:01;;;;;;;107.32;52.53;;;8.00;99.90;;;;;;4924927;29;20028;-76
2023/02/23 02:35:48;;;;;;;109.88;52.60;;;8.20;99.90;;;;;;4919099;29;20056;-76
2023/02/23 02:38:33;;;;;;;106.93;51.78;;;8.20;99.90;;;;;;4933658;29;20024;-75
2023/02/23 02:41:12;;;;;;;111.35;51.90;;;8.30;99.90;;;;;;4927893;29;20091;-76
2023/02/23 02:43:55;;;;;;;105.68;54.15;;;8.20;99.90;;;;;;4923889;29;20139;-75
2023/02/23 02:46:29;;;;;;;104.57;53.35;;;8.20;99.90;;;;;;4925559;29;20123;-75
2023/02/23 02:49:00;;;;;;;113.68;56.10;;;8.30;99.90;;;;;;4922248;29;20056;-75
2023/02/23 02:51:48;;;;;;;106.40;54.03;;;8.40;99.90;;;;;;4925601;29;20028;-75
2023/02/23 02:54:29;;;;;;;112.30;54.90;;;8.40;99.90;;;;;;4915717;29;20028;-76
2023/02/23 02:56:59;;;;;;;113.47;54.75;;;8.40;99.90;;;;;;4921628;29;20106;-76
2023/02/23 04:17:58;;;;;;;99.70;49.33;;;8.20;99.90;;;;;;4915308;29;20039;-77
2023/02/23 04:20:24;;;;;;;101.15;47.58;;;8.30;99.90;;;;;;4911909;29;20090;-77
2023/02/23 04:22:50;;;;;;;104.07;49.67;;;8.30;99.90;;;;;;4918968;29;20099;-76
2023/02/23 04:25:21;;;;;;;95.57;49.58;;;8.40;99.90;;;;;;4920322;29;20411;-77
2023/02/23 04:27:50;;;;;;;104.50;48.88;;;8.30;99.90;;;;;;4917348;29;20032;-77
2023/02/23 04:30:16;;;;;;;99.70;50.30;;;8.20;99.90;;;;;;4917229;29;20040;-77
2023/02/23 04:32:44;;;;;;;106.97;52.38;;;8.30;99.90;;;;;;4920636;29;20039;-77
2023/02/23 04:35:11;;;;;;;103.05;51.33;;;8.20;99.90;;;;;;4935009;29;20220;-78
2023/02/23 04:37:37;;;;;;;106.28;51.25;;;8.20;99.90;;;;;;4922799;29;20036;-76
2023/02/23 04:40:04;;;;;;;100.20;50.35;;;8.20;99.90;;;;;;4920384;29;21411;-76
2023/02/23 04:42:30;;;;;;;101.78;49.80;;;8.20;99.90;;;;;;4920492;29;20028;-77
2023/02/23 04:44:55;;;;;;;106.22;51.75;;;8.20;99.90;;;;;;4919880;29;20042;-77
2023/02/23 04:47:21;;;;;;;109.32;51.83;;;8.20;99.90;;;;;;4914780;29;20031;-76
2023/02/23 04:49:47;;;;;;;103.25;49.65;;;8.20;99.90;;;;;;4928056;29;20494;-76
2023/02/23 04:52:12;;;;;;;105.85;53.03;;;8.20;99.90;;;;;;4918715;29;20482;-77
2023/02/23 04:54:38;;;;;;;104.40;52.17;;;8.20;99.90;;;;;;4908928;29;20032;-77
2023/02/23 04:57:05;;;;;;;116.90;54.97;;;8.10;99.90;;;;;;4920317;29;20028;-76
2023/02/23 04:59:31;;;;;;;109.68;53.33;;;8.10;99.90;;;;;;4910076;29;20425;-77
2023/02/23 05:01:56;;;;;;;119.60;56.70;;;8.00;99.90;;;;;;4914174;29;20032;-76
2023/02/23 05:04:23;;;;;;;110.15;55.90;;;8.00;99.90;;;;;;4912481;29;20043;-76
2023/02/23 05:06:49;;;;;;;109.00;54.33;;;7.90;99.90;;;;;;4906886;29;20040;-79
2023/02/23 05:09:14;;;;;;;106.03;53.17;;;7.80;99.90;;;;;;4924888;29;20064;-76
2023/02/23 05:11:40;;;;;;;108.30;53.65;;;7.90;99.90;;;;;;4907478;29;20100;-77
2023/02/23 05:14:06;;;;;;;110.80;53.72;;;7.90;99.90;;;;;;4906294;29;20490;-77
2023/02/23 05:16:32;;;;;;;110.72;52.13;;;7.90;99.90;;;;;;4918780;29;20462;-75
2023/02/23 05:18:58;;;;;;;108.45;52.88;;;7.90;99.90;;;;;;4920005;29;20032;-76
2023/02/23 05:21:23;;;;;;;123.88;53.67;;;7.90;99.90;;;;;;4918979;29;20100;-77
2023/02/23 05:23:49;;;;;;;114.78;52.72;;;7.80;99.90;;;;;;4911434;29;20044;-76
2023/02/23 05:26:16;;;;;;;103.88;51.65;;;7.90;99.90;;;;;;4921539;29;20050;-76
2023/02/23 05:28:42;;;;;;;104.75;48.50;;;8.00;99.90;;;;;;4906970;29;20538;-76
2023/02/23 05:31:07;;;;;;;101.47;49.75;;;7.90;99.90;;;;;;4920025;29;20032;-77
2023/02/23 05:33:44;;;;;;;115.22;53.58;;;8.00;99.90;;;;;;4917982;29;20040;-77
2023/02/23 05:36:16;;;;;;;103.22;50.95;;;7.90;99.90;;;;;;4914380;29;20058;-76
2023/02/23 05:38:43;;;;;;;89.38;44.78;;;8.00;99.90;;;;;;4906643;29;20028;-77
2023/02/23 05:41:14;;;;;;;96.50;46.78;;;8.00;99.90;;;;;;4917637;29;20139;-77
2023/02/23 05:43:40;;;;;;;106.60;50.25;;;7.90;99.90;;;;;;4909494;29;20046;-78
2023/02/23 05:46:11;;;;;;;107.35;49.20;;;7.80;99.90;;;;;;4906593;29;20035;-75
2023/02/23 05:48:37;;;;;;;101.38;51.22;;;7.90;99.90;;;;;;4912986;29;20052;-77
2023/02/23 05:51:09;;;;;;;102.97;52.08;;;8.00;99.90;;;;;;4915342;29;20036;-77
2023/02/23 05:53:35;;;;;;;106.55;53.83;;;8.00;99.90;;;;;;4907745;29;20520;-78
2023/02/23 05:56:01;;;;;;;102.45;48.13;;;8.00;99.90;;;;;;4913709;29;20095;-75
2023/02/23 05:58:27;;;;;;;103.10;49.10;;;7.90;99.90;;;;;;4911655;29;20126;-79
2023/02/23 06:00:53;;;;;;;99.25;50.28;;;7.70;99.90;;;;;;4906648;29;20047;-77
2023/02/23 06:03:19;;;;;;;100.38;48.97;;;7.80;99.90;;;;;;4918908;29;20035;-76
2023/02/23 06:05:57;;;;;;;112.07;52.78;;;7.80;99.90;;;;;;4929336;29;20040;-76
2023/02/23 06:08:25;;;;;;;106.72;52.65;;;7.80;99.90;;;;;;4927881;29;20118;-76
2023/02/23 06:10:50;;;;;;;105.90;51.65;;;7.90;99.90;;;;;;4924044;29;20640;-76
2023/02/23 06:13:16;;;;;;;102.07;49.50;;;8.00;99.90;;;;;;4915954;29;20031;-77
2023/02/23 06:15:42;;;;;;;108.03;49.38;;;8.00;99.90;;;;;;4917333;29;20115;-77
2023/02/23 06:18:08;;;;;;;109.95;52.83;;;8.00;99.90;;;;;;4921869;29;20567;-77
2023/02/23 06:20:35;;;;;;;106.55;51.70;;;8.00;99.90;;;;;;4917604;29;20498;-77
2023/02/23 06:23:00;;;;;;;106.85;50.13;;;8.10;99.90;;;;;;4921770;29;20101;-77
2023/02/23 06:25:26;;;;;;;112.25;49.50;;;8.00;99.90;;;;;;4922305;29;20036;-77
2023/02/23 06:27:52;;;;;;;110.90;50.95;;;8.10;99.90;;;;;;4911409;29;20119;-76
2023/02/23 06:30:18;;;;;;;108.25;53.17;;;8.20;99.90;;;;;;4919582;29;20068;-76
2023/02/23 06:32:43;;;;;;;115.45;55.45;;;8.10;99.90;;;;;;4924993;29;20078;-77
2023/02/23 06:35:09;;;;;;;110.57;55.03;;;8.10;99.90;;;;;;4929234;29;20036;-77
2023/02/23 06:37:35;;;;;;;110.20;56.22;;;8.20;99.90;;;;;;4926184;29;20517;-79
2023/02/23 06:40:02;;;;;;;121.28;57.22;;;8.20;99.90;;;;;;4915450;29;20047;-75
2023/02/23 06:42:28;;;;;;;120.22;57.97;;;8.20;99.90;;;;;;4916208;29;20065;-74
2023/02/23 06:44:54;;;;;;;117.13;57.53;;;8.20;99.90;;;;;;4915173;29;20112;-74
2023/02/23 06:47:19;;;;;;;118.20;59.35;;;8.20;99.90;;;;;;4920490;29;20079;-73
2023/02/23 06:49:46;;;;;;;124.55;60.85;;;8.30;99.90;;;;;;4908039;29;20055;-74
2023/02/23 06:52:13;;;;;;;116.35;58.00;;;8.20;99.90;;;;;;4913914;29;20095;-73
2023/02/23 06:54:43;;;;;;;115.55;57.95;;;8.20;99.90;;;;;;4917303;29;20883;-73
2023/02/23 06:57:09;;;;;;;123.75;57.28;;;8.20;99.90;;;;;;4922110;29;20031;-74
2023/02/23 06:59:35;;;;;;;120.72;57.83;;;8.30;99.90;;;;;;4918332;29;20036;-74
2023/02/23 07:02:04;;;;;;;115.82;55.20;;;8.20;99.90;;;;;;4914703;29;20091;-73
2023/02/23 07:04:30;;;;;;;110.40;54.88;;;8.20;99.90;;;;;;4918088;29;20028;-74
2023/02/23 07:06:56;;;;;;;111.07;58.25;;;8.10;99.90;;;;;;4916808;29;20043;-76
2023/02/23 07:09:22;;;;;;;124.90;58.03;;;8.20;99.90;;;;;;4920951;29;20044;-74
2023/02/23 07:11:47;;;;;;;116.57;55.33;;;8.20;99.90;;;;;;4916356;29;20114;-73
2023/02/23 07:14:13;;;;;;;125.50;56.63;;;8.20;99.90;;;;;;4925849;29;20038;-74
2023/02/23 07:16:39;;;;;;;117.85;58.97;;;8.10;99.90;;;;;;4915911;29;20045;-73
2023/02/23 07:19:06;;;;;;;115.95;57.25;;;8.20;99.90;;;;;;4911419;29;20024;-75
2023/02/23 07:21:32;;;;;;;119.43;63.55;;;8.20;99.90;;;;;;4916656;29;20107;-75
2023/02/23 07:23:59;;;;;;;119.90;59.15;;;8.20;99.90;;;;;;4916985;29;20039;-75
2023/02/23 07:26:25;;;;;;;118.97;60.30;;;8.20;99.90;;;;;;4917606;29;20040;-76
2023/02/23 07:28:50;;;;;;;119.57;58.90;;;8.20;99.90;;;;;;4916119;29;20028;-75
2023/02/23 07:31:16;;;;;;;121.32;57.45;;;8.20;99.90;;;;;;4913693;29;20079;-75
2023/02/23 07:33:42;;;;;;;115.72;56.00;;;8.30;99.90;;;;;;4912985;29;20035;-75
2023/02/23 07:36:08;;;;;;;124.38;59.03;;;8.40;99.90;;;;;;4915812;29;20118;-76
2023/02/23 07:38:34;;;;;;;128.73;60.88;;;8.40;99.90;;;;;;4914952;29;20031;-75
2023/02/23 07:41:00;;;;;;;113.13;55.28;;;8.40;99.90;;;;;;4909262;29;20856;-75
2023/02/23 07:43:25;;;;;;;119.00;58.10;;;8.30;99.90;;;;;;4915040;29;20032;-76
2023/02/23 07:45:51;;;;;;;119.60;57.55;;;8.40;99.90;;;;;;4915104;29;20866;-75
2023/02/23 07:48:18;;;;;;;125.28;58.80;;;8.40;99.90;;;;;;4913341;29;20075;-75
2023/02/23 07:50:44;;;;;;;111.32;57.60;;;8.50;99.90;;;;;;4913300;29;20047;-75
2023/02/23 07:53:10;;;;;;;111.65;55.00;;;8.50;99.90;;;;;;4914551;29;20127;-75
2023/02/23 07:55:39;;;;;;;119.72;52.90;;;8.60;99.90;;;;;;4922681;29;20047;-75
2023/02/23 07:58:06;;;;;;;122.20;57.33;;;8.60;99.90;;;;;;4914830;29;20032;-75
2023/02/23 08:00:33;;;;;;;116.32;56.20;;;8.60;99.90;;;;;;4913956;29;20036;-75
2023/02/23 08:03:00;;;;;;;113.18;54.63;;;8.70;99.90;;;;;;4920660;29;20453;-75
2023/02/23 08:05:27;;;;;;;103.72;53.72;;;8.60;99.90;;;;;;4909004;29;20043;-75
2023/02/23 08:07:53;;;;;;;111.13;54.90;;;8.50;99.90;;;;;;4918070;29;20036;-75
2023/02/23 08:10:19;;;;;;;114.38;56.55;;;8.50;99.90;;;;;;4923034;29;20100;-75
2023/02/23 08:12:45;;;;;;;113.78;55.25;;;8.60;99.90;;;;;;4919659;29;20047;-75
2023/02/23 08:15:10;;;;;;;123.30;59.28;;;8.70;99.90;;;;;;4919092;29;20040;-76
2023/02/23 08:17:38;;;;;;;118.53;53.92;;;8.70;99.90;;;;;;4913132;29;20084;-75
2023/02/23 08:20:04;;;;;;;121.30;59.28;;;8.70;99.90;;;;;;4916816;29;20459;-75
2023/02/23 08:22:30;;;;;;;118.93;55.22;;;8.70;99.90;;;;;;4922395;29;20031;-75
2023/02/23 08:24:56;;;;;;;107.38;54.78;;;8.70;99.90;;;;;;4908277;29;20090;-75
2023/02/23 08:27:23;;;;;;;120.22;57.95;;;8.70;99.90;;;;;;4916798;29;20091;-75
2023/02/23 08:29:51;;;;;;;121.35;59.90;;;8.50;99.90;;;;;;4915597;29;20044;-75
2023/02/23 08:32:17;;;;;;;112.00;56.65;;;8.30;99.90;;;;;;4909315;29;20649;-75
2023/02/23 08:34:43;;;;;;;117.28;55.20;;;8.40;99.90;;;;;;4923335;29;20094;-75
2023/02/23 08:37:10;;;;;;;109.95;57.92;;;8.50;99.90;;;;;;4917916;29;20347;-75
2023/02/23 08:39:36;;;;;;;118.85;56.88;;;8.70;99.90;;;;;;4921503;29;20506;-75
2023/02/23 08:42:02;;;;;;;122.63;58.25;;;8.70;99.90;;;;;;4916303;29;20044;-75
2023/02/23 08:44:28;;;;;;;108.35;55.10;;;8.70;99.90;;;;;;4911423;29;20040;-76
2023/02/23 08:46:54;;;;;;;120.60;55.88;;;8.80;99.90;;;;;;4903894;29;20032;-75
2023/02/23 08:49:20;;;;;;;110.40;56.05;;;8.80;99.90;;;;;;4912989;29;20043;-75
2023/02/23 08:51:46;;;;;;;113.35;56.25;;;8.90;99.90;;;;;;4919542;29;20020;-75
2023/02/23 08:54:14;;;;;;;111.53;55.63;;;9.00;99.90;;;;;;4904296;29;20044;-76
2023/02/23 08:56:43;;;;;;;118.50;56.13;;;9.00;99.90;;;;;;4911887;29;20042;-76
2023/02/23 08:59:11;;;;;;;124.25;57.03;;;9.00;99.90;;;;;;4915439;29;20039;-75
2023/02/23 09:01:37;;;;;;;113.30;56.50;;;8.80;99.90;;;;;;4904216;29;20047;-75
2023/02/23 09:04:04;;;;;;;117.78;55.58;;;8.70;99.90;;;;;;4911146;29;20028;-75
2023/02/23 09:06:31;;;;;;;117.38;55.25;;;8.80;99.90;;;;;;4912027;29;20040;-76
2023/02/23 09:08:56;;;;;;;108.97;52.95;;;8.70;99.90;;;;;;4905384;29;20032;-75
2023/02/23 09:11:23;;;;;;;115.18;55.47;;;8.90;99.90;;;;;;4913475;29;20816;-75
2023/02/23 09:13:49;;;;;;;118.50;55.65;;;8.90;99.90;;;;;;4912656;29;20040;-75
2023/02/23 09:16:15;;;;;;;115.35;57.33;;;8.90;99.90;;;;;;4905631;29;20393;-76
2023/02/23 09:18:41;;;;;;;113.85;56.85;;;8.80;99.90;;;;;;4908009;29;20059;-75
2023/02/23 09:21:17;;;;;;;114.47;57.65;;;8.80;99.90;;;;;;4912564;29;20696;-75
2023/02/23 09:23:44;;;;;;;120.20;57.22;;;8.80;99.90;;;;;;4911529;29;20036;-75
2023/02/23 09:26:10;;;;;;;118.55;57.30;;;8.90;99.90;;;;;;4912730;29;20147;-75
2023/02/23 09:28:37;;;;;;;112.25;56.67;;;8.90;99.90;;;;;;4906964;29;20127;-75
2023/02/23 09:31:12;;;;;;;123.72;58.53;;;9.00;99.90;;;;;;4915211;29;20031;-75
2023/02/23 09:33:38;;;;;;;115.35;58.95;;;9.00;99.90;;;;;;4912901;29;20083;-74
2023/02/23 09:36:19;;;;;;;116.93;55.67;;;9.10;99.90;;;;;;4914007;29;20043;-75
2023/02/23 09:38:47;;;;;;;114.65;57.58;;;9.10;99.90;;;;;;4916180;29;20055;-75
2023/02/23 09:41:24;;;;;;;114.75;59.72;;;9.20;99.90;;;;;;4913950;29;20048;-74
2023/02/23 09:44:16;;;;;;;120.95;60.13;;;9.30;99.90;;;;;;4908029;29;20067;-75
2023/02/23 09:46:58;;;;;;;111.82;57.30;;;9.50;99.90;;;;;;4914426;29;20044;-75
2023/02/23 09:49:28;;;;;;;111.43;55.15;;;9.70;99.90;;;;;;4915640;29;20044;-74
2023/02/23 09:51:58;;;;;;;128.52;61.42;;;9.70;99.90;;;;;;4921418;29;20020;-75
2023/02/23 09:54:29;;;;;;;120.20;57.58;;;9.80;99.90;;;;;;4922157;29;20035;-75
2023/02/23 09:56:57;;;;;;;112.13;57.90;;;9.90;99.90;;;;;;4917417;29;20053;-74
2023/02/23 09:59:24;;;;;;;122.85;61.40;;;10.00;99.90;;;;;;4926527;29;20866;-75
2023/02/23 10:02:01;;;;;;;119.10;58.25;;;10.00;99.90;;;;;;4919002;29;20890;-74
2023/02/23 10:04:33;;;;;;;109.60;58.97;;;10.00;99.90;;;;;;4919098;29;20036;-75
2023/02/23 10:07:19;;;;;;;119.57;59.60;;;9.90;99.90;;;;;;4915961;29;20592;-74
2023/02/23 10:10:10;;;;;;;117.43;57.42;;;10.00;99.90;;;;;;4911594;29;20071;-75
2023/02/23 10:12:47;;;;;;;117.13;60.40;;;10.00;99.90;;;;;;4909061;29;20035;-75
2023/02/23 10:15:47;;;;;;;120.20;59.67;;;10.10;99.90;;;;;;4910162;29;20039;-75
2023/02/23 10:18:49;;;;;;;123.70;59.38;;;10.10;99.90;;;;;;4910067;29;20059;-75
2023/02/23 10:21:25;;;;;;;115.32;59.30;;;10.20;99.90;;;;;;4909141;29;20374;-74
2023/02/23 10:24:04;;;;;;;121.68;62.45;;;10.10;99.90;;;;;;4921731;29;20031;-74
2023/02/23 10:26:38;;;;;;;116.93;60.13;;;10.20;99.90;;;;;;4930545;29;20079;-75
2023/02/23 10:29:14;;;;;;;117.93;60.50;;;10.20;99.90;;;;;;4922001;29;20470;-75
2023/02/23 10:31:43;;;;;;;105.50;59.05;;;10.30;99.90;;;;;;4919616;29;20032;-74
2023/02/23 10:34:16;;;;;;;118.53;61.17;;;10.40;99.90;;;;;;4922980;29;20053;-74
2023/02/23 10:37:01;;;;;;;132.23;64.93;;;10.40;99.90;;;;;;4920448;29;20099;-74
2023/02/23 10:39:29;;;;;;;115.68;58.83;;;10.40;99.90;;;;;;4925040;29;20798;-74
2023/02/23 10:42:01;;;;;;;130.27;60.70;;;10.40;99.90;;;;;;4911357;29;20127;-74
2023/02/23 10:44:28;;;;;;;106.25;57.15;;;10.50;99.90;;;;;;4921343;29;20562;-74
2023/02/23 10:47:06;;;;;;;117.10;59.35;;;10.70;99.90;;;;;;4919463;29;20502;-75
2023/02/23 10:49:46;;;;;;;118.85;62.25;;;10.60;99.90;;;;;;4918136;29;20056;-74
2023/02/23 10:52:16;;;;;;;176.32;59.17;;;10.60;99.90;;;;;;4916228;29;20895;-75
2023/02/23 10:54:46;;;;;;;111.20;58.17;;;10.60;99.90;;;;;;4916909;29;20047;-75
2023/02/23 10:57:36;;;;;;;110.60;56.33;;;10.60;99.90;;;;;;4921927;29;20031;-74
2023/02/23 11:00:19;;;;;;;115.95;58.53;;;10.70;99.90;;;;;;4915726;29;20032;-75
2023/02/23 11:02:46;;;;;;;113.95;59.40;;;10.80;99.90;;;;;;4916836;29;20028;-75
2023/02/23 11:05:33;;;;;;;120.65;62.35;;;10.90;99.90;;;;;;4922404;29;20035;-74
2023/02/23 11:08:18;;;;;;;119.13;60.65;;;11.00;99.90;;;;;;4924723;29;20489;-75
2023/02/23 11:10:59;;;;;;;115.65;60.67;;;11.00;99.90;;;;;;4919312;29;20114;-74
2023/02/23 11:13:34;;;;;;;116.55;56.97;;;11.10;99.90;;;;;;4922074;29;20020;-74
2023/02/23 11:16:09;;;;;;;118.75;60.00;;;11.40;99.90;;;;;;4909292;29;20020;-73
2023/02/23 11:18:36;;;;;;;112.10;57.10;;;11.40;99.90;;;;;;4913076;29;20542;-74
2023/02/23 11:21:02;;;;;;;116.80;59.88;;;11.50;99.90;;;;;;4923502;29;20039;-74
2023/02/23 11:23:33;;;;;;;110.78;58.28;;;11.50;99.90;;;;;;4910320;29;20036;-74
2023/02/23 11:26:21;;;;;;;111.45;59.35;;;11.50;99.90;;;;;;4921270;29;20034;-73
2023/02/23 11:28:53;;;;;;;111.43;57.75;;;11.60;99.90;;;;;;4920556;29;20121;-74
2023/02/23 11:31:27;;;;;;;109.35;57.00;;;11.80;99.90;;;;;;4919404;29;20079;-73
2023/02/23 11:33:54;;;;;;;113.75;58.13;;;11.80;99.90;;;;;;4927477;29;20031;-74
2023/02/23 11:36:28;;;;;;;112.18;59.80;;;11.80;99.90;;;;;;4926246;29;20019;-74
2023/02/23 11:39:06;;;;;;;116.10;59.20;;;11.80;99.90;;;;;;4912168;29;20044;-74
2023/02/23 11:41:34;;;;;;;109.82;59.70;;;11.80;99.90;;;;;;4910543;29;20130;-73
2023/02/23 11:44:02;;;;;;;113.32;57.78;;;11.90;99.90;;;;;;4922427;29;20036;-74
2023/02/23 11:46:31;;;;;;;107.55;58.15;;;12.00;99.90;;;;;;4910908;29;20123;-73
2023/02/23 11:49:05;;;;;;;106.97;57.80;;;11.90;99.90;;;;;;4921231;29;20067;-74
2023/02/23 11:51:48;;;;;;;107.32;60.47;;;11.90;99.90;;;;;;4922284;29;20035;-74
2023/02/23 11:54:28;;;;;;;109.25;54.78;;;12.20;99.90;;;;;;4921621;29;20031;-74
2023/02/23 11:56:55;;;;;;;106.05;57.40;;;12.20;99.90;;;;;;4919823;29;20043;-73
2023/02/23 11:59:29;;;;;;;117.55;62.42;;;12.20;99.90;;;;;;4912104;29;20032;-74
2023/02/23 12:02:18;;;;;;;107.15;54.88;;;12.30;99.90;;;;;;4920668;29;20036;-74
2023/02/23 12:04:48;;;;;;;115.90;59.08;;;12.30;99.90;;;;;;4922162;29;20024;-74
2023/02/23 12:07:40;;;;;;;112.35;54.90;;;12.20;99.90;;;;;;4922105;29;20038;-74
2023/02/23 12:10:11;;;;;;;112.00;58.20;;;12.30;99.90;;;;;;4917358;29;20172;-73
2023/02/23 12:12:49;;;;;;;115.10;61.28;;;12.30;99.90;;;;;;4918646;29;20044;-73
2023/02/23 12:15:24;;;;;;;112.45;59.70;;;12.40;99.90;;;;;;4922765;29;20250;-74
2023/02/23 12:17:59;;;;;;;104.60;56.92;;;12.60;99.90;;;;;;4904219;29;20067;-74
2023/02/23 12:20:28;;;;;;;;;;;12.80;99.90;;;;;;4913564;29;20046;-73
2023/02/23 12:22:58;;;;;;;108.53;53.58;;;12.80;99.90;;;;;;4918335;29;19950;-72
2023/02/23 12:25:27;;;;;;;97.65;55.47;;;12.80;99.90;;;;;;4908772;29;20091;-73
2023/02/23 12:28:03;;;;;;;105.78;55.60;;;12.70;99.90;;;;;;4910300;29;20033;-73
2023/02/23 12:30:53;;;;;;;101.97;52.22;;;12.60;99.90;;;;;;4921935;29;20063;-74
2023/02/23 12:33:32;;;;;;;105.63;50.83;;;12.60;99.90;;;;;;4906155;29;20546;-73
2023/02/23 12:36:30;;;;;;;101.63;52.75;;;12.50;99.90;;;;;;4912964;29;20763;-73
2023/02/23 12:39:26;;;;;;;99.90;51.38;;;12.60;99.90;;;;;;4913015;29;20123;-73
2023/02/23 12:42:36;;;;;;;99.25;54.72;;;12.50;99.80;;;;;;4921675;29;20067;-73
2023/02/23 12:45:12;;;;;;;100.50;52.20;;;12.50;99.90;;;;;;4909732;29;20597;-74
2023/02/23 12:48:02;;;;;;;97.03;52.55;;;12.50;99.90;;;;;;4912144;29;20442;-74
2023/02/23 12:50:42;;;;;;;96.13;50.05;;;12.40;99.90;;;;;;4901003;29;20048;-73
2023/02/23 12:53:21;;;;;;;116.93;62.92;;;12.20;99.90;;;;;;4903310;29;20115;-74
2023/02/23 12:56:04;;;;;;;110.68;61.88;;;12.40;99.90;;;;;;4900122;29;20036;-73
2023/02/23 12:58:45;;;;;;;107.47;55.20;;;12.40;99.90;;;;;;4894228;29;20071;-74
2023/02/23 13:01:30;;;;;;;103.20;54.08;;;12.30;99.90;;;;;;4905549;29;20048;-73
2023/02/23 13:03:58;;;;;;;109.30;54.35;;;12.30;99.90;;;;;;4901479;29;20051;-74
2023/02/23 13:06:49;;;;;;;96.43;50.67;;;12.40;99.90;;;;;;4894383;29;20024;-74
2023/02/23 13:09:27;;;;;;;101.57;51.00;;;12.40;99.90;;;;;;4894443;29;20021;-74
2023/02/23 13:12:19;;;;;;;99.30;53.58;;;12.40;99.90;;;;;;4901760;29;20123;-74
2023/02/23 13:14:57;;;;;;;100.40;51.38;;;12.30;99.90;;;;;;4907598;29;20098;-74
2023/02/23 13:17:31;;;;;;;100.78;51.47;;;12.40;99.90;;;;;;4904617;29;20040;-73
2023/02/23 13:20:19;;;;;;;106.28;53.88;;;12.20;99.90;;;;;;4893076;29;20154;-73
2023/02/23 13:23:14;;;;;;;102.72;49.97;;;12.30;99.90;;;;;;4903749;29;20044;-74
2023/02/23 13:25:39;;;;;;;92.88;47.88;;;12.50;99.90;;;;;;4901284;29;20048;-73
2023/02/23 13:28:14;;;;;;;93.93;47.85;;;12.40;99.50;;;;;;4900485;29;20162;-74
2023/02/23 13:30:46;;;;;;;94.38;49.47;;;12.50;99.50;;;;;;4901390;29;20638;-74
2023/02/23 13:33:22;;;;;;;86.00;46.83;;;12.50;99.60;;;;;;4896842;29;20486;-73
2023/02/23 13:35:48;;;;;;;90.75;47.38;;;12.70;99.60;;;;;;4899733;29;20031;-72
2023/02/23 13:38:32;;;;;;;97.15;49.28;;;12.60;99.40;;;;;;4896868;29;20051;-73
2023/02/23 13:41:20;;;;;;;94.22;47.00;;;12.80;99.40;;;;;;4894561;29;20036;-73
2023/02/23 13:43:59;;;;;;;84.97;45.38;;;12.80;99.00;;;;;;4902438;29;20035;-73
2023/02/23 13:46:29;;;;;;;88.35;46.33;;;12.80;99.10;;;;;;4899646;29;20539;-73
2023/02/23 13:49:13;;;;;;;81.50;43.53;;;12.90;98.90;;;;;;4900651;29;20523;-74
2023/02/23 13:51:48;;;;;;;90.80;49.47;;;12.70;98.90;;;;;;4893078;29;20037;-74
2023/02/23 13:54:15;;;;;;;88.72;46.55;;;12.90;99.00;;;;;;4897367;29;20044;-74
2023/02/23 13:56:49;;;;;;;97.45;55.88;;;12.90;98.50;;;;;;4892671;29;20055;-73
2023/02/23 13:59:24;;;;;;;97.05;48.10;;;12.90;98.50;;;;;;4905851;29;20028;-73
2023/02/23 14:01:52;;;;;;;88.70;44.88;;;13.00;98.60;;;;;;4900328;29;20123;-73
2023/02/23 14:04:23;;;;;;;83.38;43.22;;;13.00;98.80;;;;;;4899606;29;20031;-73
2023/02/23 14:07:17;;;;;;;89.93;44.35;;;13.00;98.50;;;;;;4909445;29;20032;-74